sensor_id;sensor_type;location;lat;lon;timestamp;pressure;altitude;pressure_sealevel;temperature;humidity
17505;BME280;8870;50.950;11.762;2023-04-08T00:01:28;98697.66;;;4.84;100.00
17505;BME280;8870;50.950;11.762;2023-04-08T00:06:46;98702.25;;;4.82;100.00
17505;BME280;8870;50.950;11.762;2023-04-08T00:12:21;98696.06;;;4.82;100.00
17505;BME280;8870;50.950;11.762;2023-04-08T00:17:40;98696.78;;;4.84;100.00
17505;BME280;8870;50.950;11.762;2023-04-08T00:23:14;98695.38;;;4.91;100.00
17505;BME280;8870;50.950;11.762;2023-04-08T00:28:38;98691.59;;;4.93;100.00
17505;BME280;8870;50.950;11.762;2023-04-08T00:34:09;98705.31;;;4.89;100.00
17505;BME280;8870;50.950;11.762;2023-04-08T00:39:28;98710.13;;;4.84;100.00
17505;BME280;8870;50.950;11.762;2023-04-08T00:45:01;98709.44;;;4.82;100.00
17505;BME280;8870;50.950;11.762;2023-04-08T00:50:20;98719.72;;;4.75;100.00
17505;BME280;8870;50.950;11.762;2023-04-08T00:55:51;98711.94;;;4.72;100.00
17505;BME280;8870;50.950;11.762;2023-04-08T01:01:18;98705.72;;;4.71;100.00
17505;BME280;8870;50.950;11.762;2023-04-08T01:07:00;98712.50;;;4.64;100.00
17505;BME280;8870;50.950;11.762;2023-04-08T01:12:24;98723.06;;;4.66;100.00
17505;BME280;8870;50.950;11.762;2023-04-08T01:17:58;98724.75;;;4.67;100.00
17505;BME280;8870;50.950;11.762;2023-04-08T01:23:22;98734.81;;;4.63;100.00
17505;BME280;8870;50.950;11.762;2023-04-08T01:28:59;98729.78;;;4.47;100.00
17505;BME280;8870;50.950;11.762;2023-04-08T01:34:21;98728.97;;;4.46;100.00
17505;BME280;8870;50.950;11.762;2023-04-08T01:39:54;98727.88;;;4.49;100.00
17505;BME280;8870;50.950;11.762;2023-04-08T01:45:15;98733.22;;;4.49;100.00
17505;BME280;8870;50.950;11.762;2023-04-08T01:50:47;98738.59;;;4.36;100.00
17505;BME280;8870;50.950;11.762;2023-04-08T01:56:09;98739.25;;;4.40;100.00
17505;BME280;8870;50.950;11.762;2023-04-08T02:01:46;98742.00;;;4.38;100.00
17505;BME280;8870;50.950;11.762;2023-04-08T02:07:05;98750.97;;;4.37;100.00
17505;BME280;8870;50.950;11.762;2023-04-08T02:12:36;98746.28;;;4.41;100.00
17505;BME280;8870;50.950;11.762;2023-04-08T02:18:02;98741.91;;;4.40;100.00
17505;BME280;8870;50.950;11.762;2023-04-08T02:23:38;98753.75;;;4.36;100.00
17505;BME280;8870;50.950;11.762;2023-04-08T02:29:11;98753.97;;;4.32;100.00
17505;BME280;8870;50.950;11.762;2023-04-08T02:34:33;98754.72;;;4.35;100.00
17505;BME280;8870;50.950;11.762;2023-04-08T02:40:24;98758.91;;;4.26;100.00
17505;BME280;8870;50.950;11.762;2023-04-08T02:45:43;98779.19;;;4.28;100.00
17505;BME280;8870;50.950;11.762;2023-04-08T02:51:19;98778.66;;;4.23;100.00
17505;BME280;8870;50.950;11.762;2023-04-08T02:56:37;98776.63;;;4.27;100.00
17505;BME280;8870;50.950;11.762;2023-04-08T03:02:08;98775.78;;;4.26;100.00
17505;BME280;8870;50.950;11.762;2023-04-08T03:07:29;98765.22;;;4.25;100.00
17505;BME280;8870;50.950;11.762;2023-04-08T03:13:00;98770.66;;;4.23;100.00
17505;BME280;8870;50.950;11.762;2023-04-08T03:18:19;98772.38;;;4.24;100.00
17505;BME280;8870;50.950;11.762;2023-04-08T03:23:52;98771.78;;;4.08;100.00
17505;BME280;8870;50.950;11.762;2023-04-08T03:29:11;98781.47;;;4.09;100.00
17505;BME280;8870;50.950;11.762;2023-04-08T03:34:41;98788.63;;;4.08;100.00
17505;BME280;8870;50.950;11.762;2023-04-08T03:40:03;98773.72;;;4.06;100.00
17505;BME280;8870;50.950;11.762;2023-04-08T03:45:33;98795.69;;;3.96;100.00
17505;BME280;8870;50.950;11.762;2023-04-08T03:50:52;98797.44;;;3.84;100.00
17505;BME280;8870;50.950;11.762;2023-04-08T03:56:25;98806.59;;;3.80;100.00
17505;BME280;8870;50.950;11.762;2023-04-08T04:01:44;98813.50;;;3.83;100.00
17505;BME280;8870;50.950;11.762;2023-04-08T04:07:14;98822.50;;;3.82;100.00
17505;BME280;8870;50.950;11.762;2023-04-08T04:12:35;98841.44;;;3.77;100.00
17505;BME280;8870;50.950;11.762;2023-04-08T04:18:08;98846.91;;;3.76;100.00
17505;BME280;8870;50.950;11.762;2023-04-08T04:23:33;98860.78;;;3.81;100.00
17505;BME280;8870;50.950;11.762;2023-04-08T04:29:07;98862.56;;;3.80;100.00
17505;BME280;8870;50.950;11.762;2023-04-08T04:34:26;98866.31;;;3.78;100.00
17505;BME280;8870;50.950;11.762;2023-04-08T04:39:56;98875.06;;;3.80;100.00
17505;BME280;8870;50.950;11.762;2023-04-08T04:45:18;98885.16;;;3.75;100.00
17505;BME280;8870;50.950;11.762;2023-04-08T04:50:53;98894.88;;;3.76;100.00
17505;BME280;8870;50.950;11.762;2023-04-08T04:56:11;98891.47;;;3.74;100.00
17505;BME280;8870;50.950;11.762;2023-04-08T05:01:46;98900.00;;;3.79;100.00
17505;BME280;8870;50.950;11.762;2023-04-08T05:07:05;98904.56;;;3.77;100.00
17505;BME280;8870;50.950;11.762;2023-04-08T05:12:35;98905.41;;;3.77;100.00
17505;BME280;8870;50.950;11.762;2023-04-08T05:17:56;98912.38;;;3.80;100.00
17505;BME280;8870;50.950;11.762;2023-04-08T05:23:27;98898.91;;;3.81;100.00
17505;BME280;8870;50.950;11.762;2023-04-08T05:28:46;98897.84;;;3.84;100.00
17505;BME280;8870;50.950;11.762;2023-04-08T05:34:20;98910.84;;;3.89;100.00
17505;BME280;8870;50.950;11.762;2023-04-08T05:39:39;98911.41;;;3.94;100.00
17505;BME280;8870;50.950;11.762;2023-04-08T05:45:10;98914.69;;;3.97;100.00
17505;BME280;8870;50.950;11.762;2023-04-08T05:50:30;98907.91;;;3.93;100.00
17505;BME280;8870;50.950;11.762;2023-04-08T05:56:02;98910.00;;;4.01;100.00
17505;BME280;8870;50.950;11.762;2023-04-08T06:01:20;98923.13;;;4.04;100.00
17505;BME280;8870;50.950;11.762;2023-04-08T06:06:54;98928.56;;;4.03;100.00
17505;BME280;8870;50.950;11.762;2023-04-08T06:12:17;98931.13;;;4.04;100.00
17505;BME280;8870;50.950;11.762;2023-04-08T06:17:48;98934.75;;;4.03;100.00
17505;BME280;8870;50.950;11.762;2023-04-08T06:23:15;98937.00;;;4.09;100.00
17505;BME280;8870;50.950;11.762;2023-04-08T06:28:47;98950.53;;;4.06;100.00
17505;BME280;8870;50.950;11.762;2023-04-08T06:34:06;98962.72;;;4.10;100.00
17505;BME280;8870;50.950;11.762;2023-04-08T06:39:39;98956.50;;;4.10;100.00
17505;BME280;8870;50.950;11.762;2023-04-08T06:44:58;98959.16;;;4.10;100.00
17505;BME280;8870;50.950;11.762;2023-04-08T06:50:28;98969.84;;;4.10;100.00
17505;BME280;8870;50.950;11.762;2023-04-08T06:55:49;98978.72;;;4.10;100.00
17505;BME280;8870;50.950;11.762;2023-04-08T07:01:22;98993.44;;;4.16;100.00
17505;BME280;8870;50.950;11.762;2023-04-08T07:06:40;99001.31;;;4.18;100.00
17505;BME280;8870;50.950;11.762;2023-04-08T07:12:13;99012.31;;;4.13;100.00
17505;BME280;8870;50.950;11.762;2023-04-08T07:17:32;99014.34;;;4.09;100.00
17505;BME280;8870;50.950;11.762;2023-04-08T07:23:03;99011.53;;;4.11;100.00
17505;BME280;8870;50.950;11.762;2023-04-08T07:28:24;99015.47;;;4.18;100.00
17505;BME280;8870;50.950;11.762;2023-04-08T07:34:00;99015.59;;;4.16;100.00
17505;BME280;8870;50.950;11.762;2023-04-08T07:39:19;99024.25;;;4.20;100.00
17505;BME280;8870;50.950;11.762;2023-04-08T07:44:52;99012.41;;;4.24;100.00
17505;BME280;8870;50.950;11.762;2023-04-08T07:50:12;99016.97;;;4.35;100.00
17505;BME280;8870;50.950;11.762;2023-04-08T07:55:48;99023.19;;;4.36;100.00
17505;BME280;8870;50.950;11.762;2023-04-08T08:01:16;99030.53;;;4.45;100.00
17505;BME280;8870;50.950;11.762;2023-04-08T08:06:52;99031.09;;;4.50;100.00
17505;BME280;8870;50.950;11.762;2023-04-08T08:12:23;99036.75;;;4.45;100.00
17505;BME280;8870;50.950;11.762;2023-04-08T08:17:45;99038.97;;;4.52;100.00
17505;BME280;8870;50.950;11.762;2023-04-08T08:23:17;99056.06;;;4.49;100.00
17505;BME280;8870;50.950;11.762;2023-04-08T08:28:35;99055.72;;;4.54;100.00
17505;BME280;8870;50.950;11.762;2023-04-08T08:34:09;99056.38;;;4.57;100.00
17505;BME280;8870;50.950;11.762;2023-04-08T08:39:28;99068.31;;;4.65;100.00
17505;BME280;8870;50.950;11.762;2023-04-08T08:45:01;99067.16;;;4.69;100.00
17505;BME280;8870;50.950;11.762;2023-04-08T08:50:23;99084.44;;;4.76;100.00
17505;BME280;8870;50.950;11.762;2023-04-08T08:55:56;99086.88;;;4.79;100.00
17505;BME280;8870;50.950;11.762;2023-04-08T09:01:30;99092.34;;;4.77;100.00
17505;BME280;8870;50.950;11.762;2023-04-08T09:07:10;99113.41;;;4.69;100.00
17505;BME280;8870;50.950;11.762;2023-04-08T09:12:29;99128.31;;;4.85;100.00
17505;BME280;8870;50.950;11.762;2023-04-08T09:18:01;99129.63;;;4.92;100.00
17505;BME280;8870;50.950;11.762;2023-04-08T09:23:21;99142.97;;;4.92;100.00
17505;BME280;8870;50.950;11.762;2023-04-08T09:29:00;99145.72;;;5.03;100.00
17505;BME280;8870;50.950;11.762;2023-04-08T09:34:33;99156.72;;;5.12;100.00
17505;BME280;8870;50.950;11.762;2023-04-08T09:40:08;99149.88;;;5.20;100.00
17505;BME280;8870;50.950;11.762;2023-04-08T09:45:27;99158.19;;;5.29;100.00
17505;BME280;8870;50.950;11.762;2023-04-08T09:51:00;99133.47;;;5.38;100.00
17505;BME280;8870;50.950;11.762;2023-04-08T09:56:20;99118.47;;;5.61;100.00
17505;BME280;8870;50.950;11.762;2023-04-08T10:01:53;99098.88;;;5.61;100.00
17505;BME280;8870;50.950;11.762;2023-04-08T10:07:14;99093.72;;;5.70;100.00
17505;BME280;8870;50.950;11.762;2023-04-08T10:12:48;99074.59;;;5.64;100.00
17505;BME280;8870;50.950;11.762;2023-04-08T10:18:30;99077.31;;;5.75;100.00
17505;BME280;8870;50.950;11.762;2023-04-08T10:24:08;99078.91;;;5.78;100.00
17505;BME280;8870;50.950;11.762;2023-04-08T10:29:32;99075.63;;;5.74;100.00
17505;BME280;8870;50.950;11.762;2023-04-08T10:35:04;99091.09;;;5.82;100.00
17505;BME280;8870;50.950;11.762;2023-04-08T10:40:22;99077.69;;;5.70;100.00
17505;BME280;8870;50.950;11.762;2023-04-08T10:45:55;99077.81;;;5.69;100.00
17505;BME280;8870;50.950;11.762;2023-04-08T10:51:15;99078.25;;;5.87;100.00
17505;BME280;8870;50.950;11.762;2023-04-08T10:56:49;99086.47;;;6.08;100.00
17505;BME280;8870;50.950;11.762;2023-04-08T11:02:15;99074.47;;;6.14;100.00
17505;BME280;8870;50.950;11.762;2023-04-08T11:07:46;99061.66;;;6.06;100.00
17505;BME280;8870;50.950;11.762;2023-04-08T11:13:06;99053.31;;;6.11;100.00
17505;BME280;8870;50.950;11.762;2023-04-08T11:18:40;99055.91;;;6.24;100.00
17505;BME280;8870;50.950;11.762;2023-04-08T11:24:00;99051.91;;;6.41;100.00
17505;BME280;8870;50.950;11.762;2023-04-08T11:29:33;99051.09;;;6.52;100.00
17505;BME280;8870;50.950;11.762;2023-04-08T11:34:54;99046.59;;;6.75;100.00
17505;BME280;8870;50.950;11.762;2023-04-08T11:40:26;99035.88;;;6.75;100.00
17505;BME280;8870;50.950;11.762;2023-04-08T11:45:44;99034.78;;;6.77;100.00
17505;BME280;8870;50.950;11.762;2023-04-08T11:51:17;99024.19;;;6.65;100.00
17505;BME280;8870;50.950;11.762;2023-04-08T11:56:44;99031.13;;;6.67;100.00
17505;BME280;8870;50.950;11.762;2023-04-08T12:02:17;99043.28;;;6.48;100.00
17505;BME280;8870;50.950;11.762;2023-04-08T12:07:37;99039.16;;;6.56;100.00
17505;BME280;8870;50.950;11.762;2023-04-08T12:13:09;99042.44;;;6.59;100.00
17505;BME280;8870;50.950;11.762;2023-04-08T12:18:28;99048.06;;;6.68;100.00
17505;BME280;8870;50.950;11.762;2023-04-08T12:24:01;99051.81;;;6.76;100.00
17505;BME280;8870;50.950;11.762;2023-04-08T12:29:33;99045.63;;;6.87;100.00
17505;BME280;8870;50.950;11.762;2023-04-08T12:34:51;99059.59;;;6.91;100.00
17505;BME280;8870;50.950;11.762;2023-04-08T12:40:24;99050.59;;;6.92;100.00
17505;BME280;8870;50.950;11.762;2023-04-08T12:45:43;99043.44;;;6.92;100.00
17505;BME280;8870;50.950;11.762;2023-04-08T12:51:16;99049.41;;;6.85;100.00
17505;BME280;8870;50.950;11.762;2023-04-08T12:56:36;99057.44;;;6.85;100.00
17505;BME280;8870;50.950;11.762;2023-04-08T13:02:10;99058.16;;;6.98;100.00
17505;BME280;8870;50.950;11.762;2023-04-08T13:07:28;99053.28;;;7.03;100.00
17505;BME280;8870;50.950;11.762;2023-04-08T13:13:02;99057.53;;;6.94;100.00
17505;BME280;8870;50.950;11.762;2023-04-08T13:18:21;99058.25;;;6.97;100.00
17505;BME280;8870;50.950;11.762;2023-04-08T13:23:52;99062.53;;;6.99;100.00
17505;BME280;8870;50.950;11.762;2023-04-08T13:29:12;99058.75;;;7.02;100.00
17505;BME280;8870;50.950;11.762;2023-04-08T13:34:44;99060.09;;;7.07;100.00
17505;BME280;8870;50.950;11.762;2023-04-08T13:40:07;99052.03;;;7.19;100.00
17505;BME280;8870;50.950;11.762;2023-04-08T13:45:40;99045.31;;;7.36;100.00
17505;BME280;8870;50.950;11.762;2023-04-08T13:50:59;99037.34;;;7.57;100.00
17505;BME280;8870;50.950;11.762;2023-04-08T13:56:30;99037.41;;;7.67;100.00
17505;BME280;8870;50.950;11.762;2023-04-08T14:01:51;99039.94;;;7.80;100.00
17505;BME280;8870;50.950;11.762;2023-04-08T14:07:27;99025.06;;;7.76;100.00
17505;BME280;8870;50.950;11.762;2023-04-08T14:12:45;99035.75;;;7.87;100.00
17505;BME280;8870;50.950;11.762;2023-04-08T14:18:20;99039.03;;;7.91;100.00
17505;BME280;8870;50.950;11.762;2023-04-08T14:23:39;99031.69;;;7.93;100.00
17505;BME280;8870;50.950;11.762;2023-04-08T14:29:11;99039.34;;;7.97;100.00
17505;BME280;8870;50.950;11.762;2023-04-08T14:34:32;99047.47;;;7.86;100.00
17505;BME280;8870;50.950;11.762;2023-04-08T14:40:04;99040.72;;;7.92;100.00
17505;BME280;8870;50.950;11.762;2023-04-08T14:45:23;99033.00;;;7.98;100.00
17505;BME280;8870;50.950;11.762;2023-04-08T14:50:57;99026.53;;;7.80;100.00
17505;BME280;8870;50.950;11.762;2023-04-08T14:56:15;99036.91;;;7.94;100.00
17505;BME280;8870;50.950;11.762;2023-04-08T15:01:46;99035.34;;;7.92;100.00
17505;BME280;8870;50.950;11.762;2023-04-08T15:07:07;99029.41;;;7.88;100.00
17505;BME280;8870;50.950;11.762;2023-04-08T15:12:38;99024.28;;;7.85;100.00
17505;BME280;8870;50.950;11.762;2023-04-08T15:17:56;99034.78;;;7.88;100.00
17505;BME280;8870;50.950;11.762;2023-04-08T15:23:29;99036.97;;;7.83;100.00
17505;BME280;8870;50.950;11.762;2023-04-08T15:28:48;99039.47;;;7.75;100.00
17505;BME280;8870;50.950;11.762;2023-04-08T15:34:21;99044.56;;;7.78;100.00
17505;BME280;8870;50.950;11.762;2023-04-08T15:39:42;99042.28;;;7.73;100.00
17505;BME280;8870;50.950;11.762;2023-04-08T15:45:14;99049.34;;;7.74;100.00
17505;BME280;8870;50.950;11.762;2023-04-08T15:50:33;99045.56;;;7.77;100.00
17505;BME280;8870;50.950;11.762;2023-04-08T15:56:11;99055.41;;;7.76;100.00
17505;BME280;8870;50.950;11.762;2023-04-08T16:01:30;99053.38;;;7.68;100.00
17505;BME280;8870;50.950;11.762;2023-04-08T16:07:02;99050.44;;;7.71;100.00
17505;BME280;8870;50.950;11.762;2023-04-08T16:12:23;99051.75;;;7.77;100.00
17505;BME280;8870;50.950;11.762;2023-04-08T16:17:55;99058.22;;;7.75;100.00
17505;BME280;8870;50.950;11.762;2023-04-08T16:23:20;99066.28;;;7.75;100.00
17505;BME280;8870;50.950;11.762;2023-04-08T16:28:54;99073.91;;;7.58;100.00
17505;BME280;8870;50.950;11.762;2023-04-08T16:34:13;99090.31;;;7.65;100.00
17505;BME280;8870;50.950;11.762;2023-04-08T16:39:44;99087.31;;;7.58;100.00
17505;BME280;8870;50.950;11.762;2023-04-08T16:45:06;99092.19;;;7.53;100.00
17505;BME280;8870;50.950;11.762;2023-04-08T16:50:38;99100.47;;;7.50;100.00
17505;BME280;8870;50.950;11.762;2023-04-08T16:55:56;99109.63;;;7.47;100.00
17505;BME280;8870;50.950;11.762;2023-04-08T17:01:31;99114.50;;;7.42;100.00
17505;BME280;8870;50.950;11.762;2023-04-08T17:06:49;99123.50;;;7.41;100.00
17505;BME280;8870;50.950;11.762;2023-04-08T17:12:21;99125.97;;;7.33;100.00
17505;BME280;8870;50.950;11.762;2023-04-08T17:17:43;99134.38;;;7.28;100.00
17505;BME280;8870;50.950;11.762;2023-04-08T17:23:14;99137.81;;;7.30;100.00
17505;BME280;8870;50.950;11.762;2023-04-08T17:28:32;99151.19;;;7.19;100.00
17505;BME280;8870;50.950;11.762;2023-04-08T17:34:06;99154.63;;;7.21;100.00
17505;BME280;8870;50.950;11.762;2023-04-08T17:39:25;99159.38;;;7.29;100.00
17505;BME280;8870;50.950;11.762;2023-04-08T17:45:01;99165.34;;;7.32;100.00
17505;BME280;8870;50.950;11.762;2023-04-08T17:50:23;99160.94;;;7.31;100.00
17505;BME280;8870;50.950;11.762;2023-04-08T17:55:54;99154.63;;;7.32;100.00
17505;BME280;8870;50.950;11.762;2023-04-08T18:01:13;99158.72;;;7.36;100.00
17505;BME280;8870;50.950;11.762;2023-04-08T18:06:47;99173.25;;;7.34;100.00
17505;BME280;8870;50.950;11.762;2023-04-08T18:12:06;99175.09;;;7.33;100.00
17505;BME280;8870;50.950;11.762;2023-04-08T18:17:37;99178.97;;;7.29;100.00
17505;BME280;8870;50.950;11.762;2023-04-08T18:22:57;99194.81;;;7.21;100.00
17505;BME280;8870;50.950;11.762;2023-04-08T18:28:29;99197.34;;;7.11;100.00
17505;BME280;8870;50.950;11.762;2023-04-08T18:33:47;99207.31;;;6.98;100.00
17505;BME280;8870;50.950;11.762;2023-04-08T18:39:20;99205.94;;;6.81;100.00
17505;BME280;8870;50.950;11.762;2023-04-08T18:44:39;99210.06;;;6.73;100.00
17505;BME280;8870;50.950;11.762;2023-04-08T18:50:10;99210.78;;;6.64;100.00
17505;BME280;8870;50.950;11.762;2023-04-08T18:55:44;99225.19;;;6.50;100.00
17505;BME280;8870;50.950;11.762;2023-04-08T19:01:05;99230.63;;;6.37;100.00
17505;BME280;8870;50.950;11.762;2023-04-08T19:06:37;99231.41;;;6.26;100.00
17505;BME280;8870;50.950;11.762;2023-04-08T19:11:59;99229.81;;;6.24;100.00
17505;BME280;8870;50.950;11.762;2023-04-08T19:17:30;99221.78;;;6.24;100.00
17505;BME280;8870;50.950;11.762;2023-04-08T19:22:48;99221.06;;;6.22;100.00
17505;BME280;8870;50.950;11.762;2023-04-08T19:28:21;99213.03;;;6.22;100.00
17505;BME280;8870;50.950;11.762;2023-04-08T19:33:40;99212.53;;;6.16;100.00
17505;BME280;8870;50.950;11.762;2023-04-08T19:39:11;99211.66;;;6.16;100.00
17505;BME280;8870;50.950;11.762;2023-04-08T19:44:35;99219.81;;;6.14;100.00
17505;BME280;8870;50.950;11.762;2023-04-08T19:50:10;99227.72;;;6.16;100.00
17505;BME280;8870;50.950;11.762;2023-04-08T19:55:29;99219.56;;;6.17;100.00
17505;BME280;8870;50.950;11.762;2023-04-08T20:01:04;99224.91;;;6.17;100.00
17505;BME280;8870;50.950;11.762;2023-04-08T20:06:24;99217.63;;;6.20;100.00
17505;BME280;8870;50.950;11.762;2023-04-08T20:11:55;99219.81;;;6.14;100.00
17505;BME280;8870;50.950;11.762;2023-04-08T20:17:21;99224.91;;;6.17;100.00
17505;BME280;8870;50.950;11.762;2023-04-08T20:22:53;99219.69;;;6.16;100.00
17505;BME280;8870;50.950;11.762;2023-04-08T20:28:18;99233.94;;;6.16;100.00
17505;BME280;8870;50.950;11.762;2023-04-08T20:33:51;99226.88;;;6.15;100.00
17505;BME280;8870;50.950;11.762;2023-04-08T20:39:10;99224.91;;;6.17;100.00
17505;BME280;8870;50.950;11.762;2023-04-08T20:44:44;99229.03;;;6.10;100.00
17505;BME280;8870;50.950;11.762;2023-04-08T20:50:06;99231.56;;;6.12;100.00
17505;BME280;8870;50.950;11.762;2023-04-08T20:55:37;99224.53;;;6.11;100.00
17505;BME280;8870;50.950;11.762;2023-04-08T21:00:56;99235.13;;;6.12;100.00
17505;BME280;8870;50.950;11.762;2023-04-08T21:06:31;99219.06;;;6.12;100.00
17505;BME280;8870;50.950;11.762;2023-04-08T21:11:51;99214.47;;;6.14;100.00
17505;BME280;8870;50.950;11.762;2023-04-08T21:17:23;99223.53;;;6.12;100.00
17505;BME280;8870;50.950;11.762;2023-04-08T21:22:47;99239.94;;;6.07;100.00
17505;BME280;8870;50.950;11.762;2023-04-08T21:28:20;99237.72;;;6.01;100.00
17505;BME280;8870;50.950;11.762;2023-04-08T21:33:51;99242.97;;;5.90;100.00
17505;BME280;8870;50.950;11.762;2023-04-08T21:39:12;99244.16;;;5.85;100.00
17505;BME280;8870;50.950;11.762;2023-04-08T21:44:44;99242.88;;;5.78;100.00
17505;BME280;8870;50.950;11.762;2023-04-08T21:50:03;99240.97;;;5.80;100.00
17505;BME280;8870;50.950;11.762;2023-04-08T21:55:37;99245.66;;;5.77;100.00
17505;BME280;8870;50.950;11.762;2023-04-08T22:00:55;99234.66;;;5.81;100.00
17505;BME280;8870;50.950;11.762;2023-04-08T22:06:27;99237.22;;;5.83;100.00
17505;BME280;8870;50.950;11.762;2023-04-08T22:11:48;99225.63;;;5.82;100.00
17505;BME280;8870;50.950;11.762;2023-04-08T22:17:20;99236.34;;;5.82;100.00
17505;BME280;8870;50.950;11.762;2023-04-08T22:22:38;99230.16;;;5.82;100.00
17505;BME280;8870;50.950;11.762;2023-04-08T22:28:14;99222.00;;;5.83;100.00
17505;BME280;8870;50.950;11.762;2023-04-08T22:33:46;99237.09;;;5.84;100.00
17505;BME280;8870;50.950;11.762;2023-04-08T22:39:04;99231.00;;;5.82;100.00
17505;BME280;8870;50.950;11.762;2023-04-08T22:44:38;99230.28;;;5.80;100.00
17505;BME280;8870;50.950;11.762;2023-04-08T22:49:57;99242.69;;;5.81;100.00
17505;BME280;8870;50.950;11.762;2023-04-08T22:55:28;99236.59;;;5.79;100.00
17505;BME280;8870;50.950;11.762;2023-04-08T23:00:49;99244.47;;;5.81;100.00
17505;BME280;8870;50.950;11.762;2023-04-08T23:06:20;99236.59;;;5.79;100.00
17505;BME280;8870;50.950;11.762;2023-04-08T23:11:38;99241.50;;;5.73;100.00
17505;BME280;8870;50.950;11.762;2023-04-08T23:17:13;99243.78;;;5.66;100.00
17505;BME280;8870;50.950;11.762;2023-04-08T23:22:35;99249.53;;;5.60;100.00
17505;BME280;8870;50.950;11.762;2023-04-08T23:28:07;99250.75;;;5.55;100.00
17505;BME280;8870;50.950;11.762;2023-04-08T23:33:41;99244.97;;;5.49;100.00
17505;BME280;8870;50.950;11.762;2023-04-08T23:38:59;99259.94;;;5.51;100.00
17505;BME280;8870;50.950;11.762;2023-04-08T23:44:30;99247.97;;;5.44;100.00
17505;BME280;8870;50.950;11.762;2023-04-08T23:49:51;99245.50;;;5.41;100.00
17505;BME280;8870;50.950;11.762;2023-04-08T23:55:22;99254.47;;;5.40;100.00
